sensor_id;sensor_type;location;lat;lon;timestamp;P1;durP1;ratioP1;P2;durP2;ratioP2
13114;SDS011;6623;52.120;8.660;2022-07-17T00:01:12;6.87;;;1.70;;
13114;SDS011;6623;52.120;8.660;2022-07-17T00:03:38;3.23;;;1.27;;
13114;SDS011;6623;52.120;8.660;2022-07-17T00:06:04;2.63;;;1.00;;
13114;SDS011;6623;52.120;8.660;2022-07-17T00:08:30;5.40;;;1.57;;
13114;SDS011;6623;52.120;8.660;2022-07-17T00:10:57;2.53;;;1.37;;
13114;SDS011;6623;52.120;8.660;2022-07-17T00:13:23;2.67;;;1.23;;
13114;SDS011;6623;52.120;8.660;2022-07-17T00:15:49;3.40;;;1.70;;
13114;SDS011;6623;52.120;8.660;2022-07-17T00:18:16;4.53;;;1.40;;
13114;SDS011;6623;52.120;8.660;2022-07-17T00:20:42;6.57;;;1.37;;
13114;SDS011;6623;52.120;8.660;2022-07-17T00:23:09;4.63;;;1.50;;
13114;SDS011;6623;52.120;8.660;2022-07-17T00:25:35;3.63;;;1.40;;
13114;SDS011;6623;52.120;8.660;2022-07-17T00:28:01;6.87;;;1.60;;
13114;SDS011;6623;52.120;8.660;2022-07-17T00:30:27;4.83;;;1.57;;
13114;SDS011;6623;52.120;8.660;2022-07-17T00:32:53;8.40;;;1.60;;
13114;SDS011;6623;52.120;8.660;2022-07-17T00:35:19;3.40;;;1.77;;
13114;SDS011;6623;52.120;8.660;2022-07-17T00:37:45;4.30;;;1.50;;
13114;SDS011;6623;52.120;8.660;2022-07-17T00:40:13;3.57;;;1.40;;
13114;SDS011;6623;52.120;8.660;2022-07-17T00:42:39;5.00;;;1.50;;
13114;SDS011;6623;52.120;8.660;2022-07-17T00:45:09;2.70;;;1.47;;
13114;SDS011;6623;52.120;8.660;2022-07-17T00:47:46;3.20;;;1.80;;
13114;SDS011;6623;52.120;8.660;2022-07-17T00:50:13;6.43;;;1.70;;
13114;SDS011;6623;52.120;8.660;2022-07-17T00:52:40;1.77;;;1.37;;
13114;SDS011;6623;52.120;8.660;2022-07-17T00:55:06;4.80;;;1.70;;
13114;SDS011;6623;52.120;8.660;2022-07-17T00:57:34;5.10;;;1.80;;
13114;SDS011;6623;52.120;8.660;2022-07-17T01:00:03;5.47;;;1.60;;
13114;SDS011;6623;52.120;8.660;2022-07-17T01:02:34;3.07;;;1.60;;
13114;SDS011;6623;52.120;8.660;2022-07-17T01:05:00;4.40;;;1.90;;
13114;SDS011;6623;52.120;8.660;2022-07-17T01:07:29;6.00;;;1.57;;
13114;SDS011;6623;52.120;8.660;2022-07-17T01:09:55;5.20;;;1.40;;
13114;SDS011;6623;52.120;8.660;2022-07-17T01:12:22;9.03;;;1.67;;
13114;SDS011;6623;52.120;8.660;2022-07-17T01:14:48;5.87;;;1.43;;
13114;SDS011;6623;52.120;8.660;2022-07-17T01:17:14;4.87;;;1.50;;
13114;SDS011;6623;52.120;8.660;2022-07-17T01:19:41;2.63;;;1.33;;
13114;SDS011;6623;52.120;8.660;2022-07-17T01:22:07;4.87;;;1.60;;
13114;SDS011;6623;52.120;8.660;2022-07-17T01:24:33;3.87;;;1.50;;
13114;SDS011;6623;52.120;8.660;2022-07-17T01:26:59;4.73;;;1.83;;
13114;SDS011;6623;52.120;8.660;2022-07-17T01:29:25;4.37;;;1.70;;
13114;SDS011;6623;52.120;8.660;2022-07-17T01:31:51;6.20;;;1.70;;
13114;SDS011;6623;52.120;8.660;2022-07-17T01:34:17;8.33;;;1.80;;
13114;SDS011;6623;52.120;8.660;2022-07-17T01:36:43;6.20;;;1.70;;
13114;SDS011;6623;52.120;8.660;2022-07-17T01:39:09;4.93;;;1.70;;
13114;SDS011;6623;52.120;8.660;2022-07-17T01:41:35;3.07;;;1.40;;
13114;SDS011;6623;52.120;8.660;2022-07-17T01:44:01;8.03;;;1.50;;
13114;SDS011;6623;52.120;8.660;2022-07-17T01:46:28;3.50;;;1.37;;
13114;SDS011;6623;52.120;8.660;2022-07-17T01:48:54;3.70;;;1.30;;
13114;SDS011;6623;52.120;8.660;2022-07-17T01:51:23;4.33;;;1.57;;
13114;SDS011;6623;52.120;8.660;2022-07-17T01:53:49;6.37;;;1.77;;
13114;SDS011;6623;52.120;8.660;2022-07-17T01:56:15;5.20;;;1.70;;
13114;SDS011;6623;52.120;8.660;2022-07-17T01:58:41;5.37;;;1.57;;
13114;SDS011;6623;52.120;8.660;2022-07-17T02:01:07;4.83;;;1.50;;
13114;SDS011;6623;52.120;8.660;2022-07-17T02:03:36;4.07;;;1.60;;
13114;SDS011;6623;52.120;8.660;2022-07-17T02:06:02;4.07;;;1.60;;
13114;SDS011;6623;52.120;8.660;2022-07-17T02:08:27;2.60;;;1.50;;
13114;SDS011;6623;52.120;8.660;2022-07-17T02:10:53;2.93;;;1.30;;
13114;SDS011;6623;52.120;8.660;2022-07-17T02:13:19;4.00;;;1.33;;
13114;SDS011;6623;52.120;8.660;2022-07-17T02:15:48;3.50;;;1.40;;
13114;SDS011;6623;52.120;8.660;2022-07-17T02:18:17;3.27;;;1.57;;
13114;SDS011;6623;52.120;8.660;2022-07-17T02:20:43;2.03;;;1.30;;
13114;SDS011;6623;52.120;8.660;2022-07-17T02:23:14;8.33;;;1.60;;
13114;SDS011;6623;52.120;8.660;2022-07-17T02:25:40;7.17;;;1.60;;
13114;SDS011;6623;52.120;8.660;2022-07-17T02:28:06;4.97;;;1.47;;
13114;SDS011;6623;52.120;8.660;2022-07-17T02:30:32;4.83;;;1.37;;
13114;SDS011;6623;52.120;8.660;2022-07-17T02:32:58;3.17;;;1.60;;
13114;SDS011;6623;52.120;8.660;2022-07-17T02:35:24;2.30;;;1.30;;
13114;SDS011;6623;52.120;8.660;2022-07-17T02:37:50;6.07;;;1.50;;
13114;SDS011;6623;52.120;8.660;2022-07-17T02:40:16;5.63;;;1.80;;
13114;SDS011;6623;52.120;8.660;2022-07-17T02:42:42;4.80;;;1.50;;
13114;SDS011;6623;52.120;8.660;2022-07-17T02:45:08;2.43;;;1.13;;
13114;SDS011;6623;52.120;8.660;2022-07-17T02:47:34;2.70;;;1.40;;
13114;SDS011;6623;52.120;8.660;2022-07-17T02:50:02;7.17;;;1.50;;
13114;SDS011;6623;52.120;8.660;2022-07-17T02:52:28;3.33;;;1.60;;
13114;SDS011;6623;52.120;8.660;2022-07-17T02:54:54;4.70;;;1.37;;
13114;SDS011;6623;52.120;8.660;2022-07-17T02:57:20;2.77;;;1.63;;
13114;SDS011;6623;52.120;8.660;2022-07-17T02:59:46;5.43;;;1.40;;
13114;SDS011;6623;52.120;8.660;2022-07-17T03:02:13;3.77;;;1.40;;
13114;SDS011;6623;52.120;8.660;2022-07-17T03:04:39;4.00;;;1.30;;
13114;SDS011;6623;52.120;8.660;2022-07-17T03:07:05;8.13;;;1.80;;
13114;SDS011;6623;52.120;8.660;2022-07-17T03:09:31;5.73;;;1.90;;
13114;SDS011;6623;52.120;8.660;2022-07-17T03:11:57;4.80;;;1.63;;
13114;SDS011;6623;52.120;8.660;2022-07-17T03:14:26;3.53;;;1.67;;
13114;SDS011;6623;52.120;8.660;2022-07-17T03:16:52;7.60;;;1.67;;
13114;SDS011;6623;52.120;8.660;2022-07-17T03:19:18;2.67;;;1.37;;
13114;SDS011;6623;52.120;8.660;2022-07-17T03:21:44;3.73;;;1.60;;
13114;SDS011;6623;52.120;8.660;2022-07-17T03:24:15;3.60;;;1.57;;
13114;SDS011;6623;52.120;8.660;2022-07-17T03:26:41;4.93;;;1.70;;
13114;SDS011;6623;52.120;8.660;2022-07-17T03:29:07;5.60;;;1.30;;
13114;SDS011;6623;52.120;8.660;2022-07-17T03:31:33;3.00;;;1.30;;
13114;SDS011;6623;52.120;8.660;2022-07-17T03:33:59;4.50;;;2.10;;
13114;SDS011;6623;52.120;8.660;2022-07-17T03:36:25;4.17;;;1.43;;
13114;SDS011;6623;52.120;8.660;2022-07-17T03:38:51;2.67;;;1.37;;
13114;SDS011;6623;52.120;8.660;2022-07-17T03:41:17;2.77;;;1.37;;
13114;SDS011;6623;52.120;8.660;2022-07-17T03:43:43;5.40;;;1.50;;
13114;SDS011;6623;52.120;8.660;2022-07-17T03:46:09;3.43;;;1.60;;
13114;SDS011;6623;52.120;8.660;2022-07-17T03:48:35;5.33;;;1.53;;
13114;SDS011;6623;52.120;8.660;2022-07-17T03:51:02;3.87;;;1.40;;
13114;SDS011;6623;52.120;8.660;2022-07-17T03:53:28;4.67;;;1.50;;
13114;SDS011;6623;52.120;8.660;2022-07-17T03:55:54;4.13;;;1.57;;
13114;SDS011;6623;52.120;8.660;2022-07-17T03:58:20;4.00;;;1.60;;
13114;SDS011;6623;52.120;8.660;2022-07-17T04:00:46;3.90;;;1.50;;
13114;SDS011;6623;52.120;8.660;2022-07-17T04:03:12;5.97;;;1.67;;
13114;SDS011;6623;52.120;8.660;2022-07-17T04:05:38;8.77;;;1.70;;
13114;SDS011;6623;52.120;8.660;2022-07-17T04:08:04;4.07;;;1.80;;
13114;SDS011;6623;52.120;8.660;2022-07-17T04:10:30;2.90;;;1.80;;
13114;SDS011;6623;52.120;8.660;2022-07-17T04:12:56;3.23;;;1.50;;
13114;SDS011;6623;52.120;8.660;2022-07-17T04:15:22;4.10;;;1.70;;
13114;SDS011;6623;52.120;8.660;2022-07-17T04:18:06;4.00;;;1.43;;
13114;SDS011;6623;52.120;8.660;2022-07-17T04:20:32;7.27;;;1.80;;
13114;SDS011;6623;52.120;8.660;2022-07-17T04:22:58;5.47;;;2.07;;
13114;SDS011;6623;52.120;8.660;2022-07-17T04:25:27;3.57;;;1.47;;
13114;SDS011;6623;52.120;8.660;2022-07-17T04:27:59;4.43;;;1.57;;
13114;SDS011;6623;52.120;8.660;2022-07-17T04:30:25;2.97;;;1.80;;
13114;SDS011;6623;52.120;8.660;2022-07-17T04:32:51;3.07;;;1.57;;
13114;SDS011;6623;52.120;8.660;2022-07-17T04:35:17;6.13;;;1.40;;
13114;SDS011;6623;52.120;8.660;2022-07-17T04:37:46;2.27;;;1.30;;
13114;SDS011;6623;52.120;8.660;2022-07-17T04:40:12;3.27;;;1.30;;
13114;SDS011;6623;52.120;8.660;2022-07-17T04:42:59;3.77;;;1.70;;
13114;SDS011;6623;52.120;8.660;2022-07-17T04:45:24;5.23;;;1.63;;
13114;SDS011;6623;52.120;8.660;2022-07-17T04:47:50;3.17;;;1.70;;
13114;SDS011;6623;52.120;8.660;2022-07-17T04:50:16;3.37;;;1.77;;
13114;SDS011;6623;52.120;8.660;2022-07-17T04:52:42;5.13;;;1.90;;
13114;SDS011;6623;52.120;8.660;2022-07-17T04:55:08;3.40;;;1.50;;
13114;SDS011;6623;52.120;8.660;2022-07-17T04:57:35;3.63;;;1.60;;
13114;SDS011;6623;52.120;8.660;2022-07-17T05:00:02;3.70;;;1.97;;
13114;SDS011;6623;52.120;8.660;2022-07-17T05:02:31;3.10;;;1.53;;
13114;SDS011;6623;52.120;8.660;2022-07-17T05:04:57;2.30;;;1.50;;
13114;SDS011;6623;52.120;8.660;2022-07-17T05:07:23;3.63;;;1.53;;
13114;SDS011;6623;52.120;8.660;2022-07-17T05:09:49;5.00;;;1.50;;
13114;SDS011;6623;52.120;8.660;2022-07-17T05:12:15;4.33;;;1.60;;
13114;SDS011;6623;52.120;8.660;2022-07-17T05:14:41;3.73;;;1.50;;
13114;SDS011;6623;52.120;8.660;2022-07-17T05:17:07;3.50;;;1.50;;
13114;SDS011;6623;52.120;8.660;2022-07-17T05:19:33;3.33;;;1.87;;
13114;SDS011;6623;52.120;8.660;2022-07-17T05:22:00;4.10;;;1.83;;
13114;SDS011;6623;52.120;8.660;2022-07-17T05:24:26;2.30;;;1.17;;
13114;SDS011;6623;52.120;8.660;2022-07-17T05:26:52;5.60;;;1.50;;
13114;SDS011;6623;52.120;8.660;2022-07-17T05:29:18;2.77;;;1.47;;
13114;SDS011;6623;52.120;8.660;2022-07-17T05:31:44;3.37;;;1.60;;
13114;SDS011;6623;52.120;8.660;2022-07-17T05:34:10;5.33;;;1.60;;
13114;SDS011;6623;52.120;8.660;2022-07-17T05:36:36;2.83;;;1.20;;
13114;SDS011;6623;52.120;8.660;2022-07-17T05:39:02;4.47;;;1.30;;
13114;SDS011;6623;52.120;8.660;2022-07-17T05:41:28;5.53;;;1.63;;
13114;SDS011;6623;52.120;8.660;2022-07-17T05:43:54;10.87;;;2.07;;
13114;SDS011;6623;52.120;8.660;2022-07-17T05:46:20;3.60;;;1.40;;
13114;SDS011;6623;52.120;8.660;2022-07-17T05:48:46;2.73;;;1.43;;
13114;SDS011;6623;52.120;8.660;2022-07-17T05:51:12;5.67;;;1.50;;
13114;SDS011;6623;52.120;8.660;2022-07-17T05:53:38;3.40;;;1.47;;
13114;SDS011;6623;52.120;8.660;2022-07-17T05:56:04;6.53;;;1.60;;
13114;SDS011;6623;52.120;8.660;2022-07-17T05:58:31;3.47;;;1.40;;
13114;SDS011;6623;52.120;8.660;2022-07-17T06:00:57;4.03;;;1.30;;
13114;SDS011;6623;52.120;8.660;2022-07-17T06:03:22;1.97;;;1.03;;
13114;SDS011;6623;52.120;8.660;2022-07-17T06:05:48;4.67;;;1.50;;
13114;SDS011;6623;52.120;8.660;2022-07-17T06:08:14;4.33;;;1.30;;
13114;SDS011;6623;52.120;8.660;2022-07-17T06:10:40;5.83;;;1.40;;
13114;SDS011;6623;52.120;8.660;2022-07-17T06:13:06;6.83;;;2.10;;
13114;SDS011;6623;52.120;8.660;2022-07-17T06:15:32;4.67;;;1.60;;
13114;SDS011;6623;52.120;8.660;2022-07-17T06:18:02;3.47;;;1.30;;
13114;SDS011;6623;52.120;8.660;2022-07-17T06:20:28;5.57;;;1.40;;
13114;SDS011;6623;52.120;8.660;2022-07-17T06:23:00;3.87;;;1.40;;
13114;SDS011;6623;52.120;8.660;2022-07-17T06:25:26;3.13;;;1.23;;
13114;SDS011;6623;52.120;8.660;2022-07-17T06:27:52;2.33;;;1.20;;
13114;SDS011;6623;52.120;8.660;2022-07-17T06:30:18;4.13;;;1.60;;
13114;SDS011;6623;52.120;8.660;2022-07-17T06:32:44;2.50;;;1.17;;
13114;SDS011;6623;52.120;8.660;2022-07-17T06:35:10;5.73;;;1.60;;
13114;SDS011;6623;52.120;8.660;2022-07-17T06:37:36;3.17;;;1.30;;
13114;SDS011;6623;52.120;8.660;2022-07-17T06:40:03;6.07;;;1.57;;
13114;SDS011;6623;52.120;8.660;2022-07-17T06:42:29;3.90;;;1.70;;
13114;SDS011;6623;52.120;8.660;2022-07-17T06:44:58;3.13;;;1.10;;
13114;SDS011;6623;52.120;8.660;2022-07-17T06:47:27;5.77;;;1.83;;
13114;SDS011;6623;52.120;8.660;2022-07-17T06:49:53;4.30;;;1.33;;
13114;SDS011;6623;52.120;8.660;2022-07-17T06:52:22;4.07;;;1.20;;
13114;SDS011;6623;52.120;8.660;2022-07-17T06:54:48;5.10;;;1.57;;
13114;SDS011;6623;52.120;8.660;2022-07-17T06:57:14;4.43;;;1.37;;
13114;SDS011;6623;52.120;8.660;2022-07-17T06:59:40;1.63;;;1.10;;
13114;SDS011;6623;52.120;8.660;2022-07-17T07:02:06;3.10;;;1.20;;
13114;SDS011;6623;52.120;8.660;2022-07-17T07:04:32;3.70;;;1.23;;
13114;SDS011;6623;52.120;8.660;2022-07-17T07:06:58;4.37;;;1.30;;
13114;SDS011;6623;52.120;8.660;2022-07-17T07:09:24;3.43;;;1.30;;
13114;SDS011;6623;52.120;8.660;2022-07-17T07:11:51;4.57;;;1.00;;
13114;SDS011;6623;52.120;8.660;2022-07-17T07:14:17;6.53;;;1.40;;
13114;SDS011;6623;52.120;8.660;2022-07-17T07:16:43;3.70;;;1.10;;
13114;SDS011;6623;52.120;8.660;2022-07-17T07:19:09;5.83;;;1.10;;
13114;SDS011;6623;52.120;8.660;2022-07-17T07:21:38;5.70;;;1.20;;
13114;SDS011;6623;52.120;8.660;2022-07-17T07:24:04;2.40;;;1.17;;
13114;SDS011;6623;52.120;8.660;2022-07-17T07:26:30;3.17;;;1.00;;
13114;SDS011;6623;52.120;8.660;2022-07-17T07:28:56;4.63;;;1.20;;
13114;SDS011;6623;52.120;8.660;2022-07-17T07:31:22;3.73;;;1.20;;
13114;SDS011;6623;52.120;8.660;2022-07-17T07:33:51;4.00;;;0.90;;
13114;SDS011;6623;52.120;8.660;2022-07-17T07:36:17;5.27;;;1.53;;
13114;SDS011;6623;52.120;8.660;2022-07-17T07:38:43;4.20;;;1.00;;
13114;SDS011;6623;52.120;8.660;2022-07-17T07:41:10;1.60;;;0.80;;
13114;SDS011;6623;52.120;8.660;2022-07-17T07:43:36;4.23;;;1.23;;
13114;SDS011;6623;52.120;8.660;2022-07-17T07:46:09;4.07;;;1.10;;
13114;SDS011;6623;52.120;8.660;2022-07-17T07:48:35;12.33;;;1.50;;
13114;SDS011;6623;52.120;8.660;2022-07-17T07:51:01;4.53;;;1.10;;
13114;SDS011;6623;52.120;8.660;2022-07-17T07:53:27;5.23;;;1.37;;
13114;SDS011;6623;52.120;8.660;2022-07-17T07:55:53;3.37;;;1.03;;
13114;SDS011;6623;52.120;8.660;2022-07-17T07:58:19;5.20;;;1.03;;
13114;SDS011;6623;52.120;8.660;2022-07-17T08:00:45;4.80;;;1.13;;
13114;SDS011;6623;52.120;8.660;2022-07-17T08:03:11;3.80;;;1.13;;
13114;SDS011;6623;52.120;8.660;2022-07-17T08:05:37;7.17;;;1.10;;
13114;SDS011;6623;52.120;8.660;2022-07-17T08:08:03;3.87;;;1.43;;
13114;SDS011;6623;52.120;8.660;2022-07-17T08:10:29;5.77;;;1.10;;
13114;SDS011;6623;52.120;8.660;2022-07-17T08:12:58;8.63;;;1.30;;
13114;SDS011;6623;52.120;8.660;2022-07-17T08:15:24;5.70;;;1.10;;
13114;SDS011;6623;52.120;8.660;2022-07-17T08:17:52;5.40;;;0.97;;
13114;SDS011;6623;52.120;8.660;2022-07-17T08:20:20;4.13;;;1.07;;
13114;SDS011;6623;52.120;8.660;2022-07-17T08:22:46;4.27;;;1.20;;
13114;SDS011;6623;52.120;8.660;2022-07-17T08:25:12;3.97;;;1.00;;
13114;SDS011;6623;52.120;8.660;2022-07-17T08:27:39;3.37;;;0.87;;
13114;SDS011;6623;52.120;8.660;2022-07-17T08:30:06;3.30;;;0.83;;
13114;SDS011;6623;52.120;8.660;2022-07-17T08:32:33;5.70;;;1.10;;
13114;SDS011;6623;52.120;8.660;2022-07-17T08:34:59;6.77;;;1.13;;
13114;SDS011;6623;52.120;8.660;2022-07-17T08:37:25;1.53;;;0.87;;
13114;SDS011;6623;52.120;8.660;2022-07-17T08:39:51;1.93;;;0.80;;
13114;SDS011;6623;52.120;8.660;2022-07-17T08:42:17;2.93;;;1.17;;
13114;SDS011;6623;52.120;8.660;2022-07-17T08:44:44;3.57;;;1.20;;
13114;SDS011;6623;52.120;8.660;2022-07-17T08:47:13;4.07;;;1.03;;
13114;SDS011;6623;52.120;8.660;2022-07-17T08:49:46;5.00;;;1.10;;
13114;SDS011;6623;52.120;8.660;2022-07-17T08:52:14;3.87;;;1.00;;
13114;SDS011;6623;52.120;8.660;2022-07-17T08:54:40;2.20;;;0.70;;
13114;SDS011;6623;52.120;8.660;2022-07-17T08:57:06;3.07;;;1.10;;
13114;SDS011;6623;52.120;8.660;2022-07-17T08:59:32;6.03;;;1.03;;
13114;SDS011;6623;52.120;8.660;2022-07-17T09:01:58;2.20;;;0.70;;
13114;SDS011;6623;52.120;8.660;2022-07-17T09:04:25;7.80;;;1.10;;
13114;SDS011;6623;52.120;8.660;2022-07-17T09:06:58;5.03;;;1.10;;
13114;SDS011;6623;52.120;8.660;2022-07-17T09:09:25;4.47;;;1.10;;
13114;SDS011;6623;52.120;8.660;2022-07-17T09:11:52;3.43;;;1.10;;
13114;SDS011;6623;52.120;8.660;2022-07-17T09:14:19;4.13;;;0.80;;
13114;SDS011;6623;52.120;8.660;2022-07-17T09:16:53;5.10;;;1.20;;
13114;SDS011;6623;52.120;8.660;2022-07-17T09:19:32;3.43;;;0.90;;
13114;SDS011;6623;52.120;8.660;2022-07-17T09:24:51;2.93;;;1.03;;
13114;SDS011;6623;52.120;8.660;2022-07-17T09:32:18;2.10;;;0.77;;
13114;SDS011;6623;52.120;8.660;2022-07-17T09:34:47;2.07;;;0.80;;
13114;SDS011;6623;52.120;8.660;2022-07-17T09:37:14;4.27;;;0.80;;
13114;SDS011;6623;52.120;8.660;2022-07-17T09:39:40;5.73;;;1.00;;
13114;SDS011;6623;52.120;8.660;2022-07-17T09:42:07;3.43;;;0.90;;
13114;SDS011;6623;52.120;8.660;2022-07-17T09:44:33;5.90;;;1.00;;
13114;SDS011;6623;52.120;8.660;2022-07-17T09:47:00;1.30;;;0.77;;
13114;SDS011;6623;52.120;8.660;2022-07-17T09:49:26;3.97;;;0.80;;
13114;SDS011;6623;52.120;8.660;2022-07-17T09:51:52;5.90;;;0.67;;
13114;SDS011;6623;52.120;8.660;2022-07-17T09:54:22;2.83;;;0.80;;
13114;SDS011;6623;52.120;8.660;2022-07-17T09:56:49;4.17;;;0.80;;
13114;SDS011;6623;52.120;8.660;2022-07-17T09:59:16;1.53;;;0.70;;
13114;SDS011;6623;52.120;8.660;2022-07-17T10:01:43;3.67;;;0.77;;
13114;SDS011;6623;52.120;8.660;2022-07-17T10:04:12;2.53;;;0.83;;
13114;SDS011;6623;52.120;8.660;2022-07-17T10:06:42;2.93;;;0.73;;
13114;SDS011;6623;52.120;8.660;2022-07-17T10:09:08;3.67;;;0.80;;
13114;SDS011;6623;52.120;8.660;2022-07-17T10:11:38;3.50;;;0.87;;
13114;SDS011;6623;52.120;8.660;2022-07-17T10:14:05;5.00;;;0.77;;
13114;SDS011;6623;52.120;8.660;2022-07-17T10:16:32;1.87;;;0.90;;
13114;SDS011;6623;52.120;8.660;2022-07-17T10:18:59;1.27;;;0.60;;
13114;SDS011;6623;52.120;8.660;2022-07-17T10:21:27;5.47;;;1.00;;
13114;SDS011;6623;52.120;8.660;2022-07-17T10:26:32;1.57;;;0.80;;
13114;SDS011;6623;52.120;8.660;2022-07-17T10:29:02;2.67;;;0.90;;
13114;SDS011;6623;52.120;8.660;2022-07-17T10:31:29;3.43;;;1.10;;
13114;SDS011;6623;52.120;8.660;2022-07-17T10:33:56;3.60;;;1.03;;
13114;SDS011;6623;52.120;8.660;2022-07-17T10:36:39;3.40;;;1.00;;
13114;SDS011;6623;52.120;8.660;2022-07-17T10:39:20;2.93;;;1.13;;
13114;SDS011;6623;52.120;8.660;2022-07-17T10:41:56;2.40;;;0.93;;
13114;SDS011;6623;52.120;8.660;2022-07-17T10:44:23;1.53;;;0.73;;
13114;SDS011;6623;52.120;8.660;2022-07-17T10:46:53;4.73;;;0.93;;
13114;SDS011;6623;52.120;8.660;2022-07-17T10:49:19;2.90;;;1.00;;
13114;SDS011;6623;52.120;8.660;2022-07-17T10:51:47;2.00;;;0.60;;
13114;SDS011;6623;52.120;8.660;2022-07-17T10:54:14;2.10;;;0.83;;
13114;SDS011;6623;52.120;8.660;2022-07-17T10:56:40;2.87;;;1.13;;
13114;SDS011;6623;52.120;8.660;2022-07-17T10:59:06;3.13;;;0.80;;
13114;SDS011;6623;52.120;8.660;2022-07-17T11:01:44;4.83;;;0.90;;
13114;SDS011;6623;52.120;8.660;2022-07-17T11:04:19;2.17;;;0.97;;
13114;SDS011;6623;52.120;8.660;2022-07-17T11:06:53;11.17;;;1.23;;
13114;SDS011;6623;52.120;8.660;2022-07-17T11:09:34;2.37;;;0.87;;
13114;SDS011;6623;52.120;8.660;2022-07-17T11:12:10;3.77;;;1.13;;
13114;SDS011;6623;52.120;8.660;2022-07-17T11:14:44;4.63;;;0.97;;
13114;SDS011;6623;52.120;8.660;2022-07-17T11:17:18;3.07;;;1.00;;
13114;SDS011;6623;52.120;8.660;2022-07-17T11:19:44;2.67;;;0.90;;
13114;SDS011;6623;52.120;8.660;2022-07-17T11:22:10;1.83;;;0.80;;
13114;SDS011;6623;52.120;8.660;2022-07-17T11:24:37;3.43;;;0.90;;
13114;SDS011;6623;52.120;8.660;2022-07-17T11:27:03;5.27;;;1.10;;
13114;SDS011;6623;52.120;8.660;2022-07-17T11:29:39;3.03;;;1.10;;
13114;SDS011;6623;52.120;8.660;2022-07-17T11:32:15;1.20;;;0.70;;
13114;SDS011;6623;52.120;8.660;2022-07-17T11:34:52;4.90;;;0.87;;
13114;SDS011;6623;52.120;8.660;2022-07-17T11:37:30;3.60;;;1.00;;
13114;SDS011;6623;52.120;8.660;2022-07-17T11:39:56;6.27;;;1.37;;
13114;SDS011;6623;52.120;8.660;2022-07-17T11:42:23;3.27;;;0.90;;
13114;SDS011;6623;52.120;8.660;2022-07-17T11:44:50;2.60;;;0.93;;
13114;SDS011;6623;52.120;8.660;2022-07-17T11:47:21;4.03;;;1.23;;
13114;SDS011;6623;52.120;8.660;2022-07-17T11:49:47;3.30;;;0.80;;
13114;SDS011;6623;52.120;8.660;2022-07-17T11:52:17;2.50;;;0.90;;
13114;SDS011;6623;52.120;8.660;2022-07-17T11:54:50;2.23;;;0.90;;
13114;SDS011;6623;52.120;8.660;2022-07-17T11:57:17;3.17;;;1.13;;
13114;SDS011;6623;52.120;8.660;2022-07-17T11:59:44;2.17;;;0.83;;
13114;SDS011;6623;52.120;8.660;2022-07-17T12:05:24;3.33;;;1.00;;
13114;SDS011;6623;52.120;8.660;2022-07-17T12:07:50;5.00;;;1.37;;
13114;SDS011;6623;52.120;8.660;2022-07-17T12:13:12;2.90;;;0.80;;
13114;SDS011;6623;52.120;8.660;2022-07-17T12:15:42;4.50;;;0.97;;
13114;SDS011;6623;52.120;8.660;2022-07-17T12:20:59;2.40;;;1.03;;
13114;SDS011;6623;52.120;8.660;2022-07-17T12:23:39;2.93;;;0.80;;
13114;SDS011;6623;52.120;8.660;2022-07-17T12:26:13;4.70;;;1.10;;
13114;SDS011;6623;52.120;8.660;2022-07-17T12:28:44;2.10;;;0.90;;
13114;SDS011;6623;52.120;8.660;2022-07-17T12:31:11;1.57;;;0.70;;
13114;SDS011;6623;52.120;8.660;2022-07-17T12:33:37;2.33;;;1.00;;
13114;SDS011;6623;52.120;8.660;2022-07-17T12:36:03;2.77;;;0.90;;
13114;SDS011;6623;52.120;8.660;2022-07-17T12:38:35;2.23;;;0.83;;
13114;SDS011;6623;52.120;8.660;2022-07-17T12:41:01;2.37;;;0.93;;
13114;SDS011;6623;52.120;8.660;2022-07-17T12:43:27;2.00;;;0.80;;
13114;SDS011;6623;52.120;8.660;2022-07-17T12:45:53;2.27;;;1.00;;
13114;SDS011;6623;52.120;8.660;2022-07-17T12:48:22;2.23;;;1.10;;
13114;SDS011;6623;52.120;8.660;2022-07-17T12:50:48;2.50;;;0.87;;
13114;SDS011;6623;52.120;8.660;2022-07-17T12:53:17;1.63;;;0.90;;
13114;SDS011;6623;52.120;8.660;2022-07-17T12:55:45;2.77;;;0.80;;
13114;SDS011;6623;52.120;8.660;2022-07-17T12:58:23;1.50;;;0.90;;
13114;SDS011;6623;52.120;8.660;2022-07-17T13:00:55;4.40;;;0.90;;
13114;SDS011;6623;52.120;8.660;2022-07-17T13:03:22;2.47;;;0.90;;
13114;SDS011;6623;52.120;8.660;2022-07-17T13:05:51;1.93;;;0.83;;
13114;SDS011;6623;52.120;8.660;2022-07-17T13:08:17;2.17;;;0.80;;
13114;SDS011;6623;52.120;8.660;2022-07-17T13:10:49;1.70;;;0.70;;
13114;SDS011;6623;52.120;8.660;2022-07-17T13:13:18;2.80;;;0.70;;
13114;SDS011;6623;52.120;8.660;2022-07-17T13:15:44;2.87;;;1.00;;
13114;SDS011;6623;52.120;8.660;2022-07-17T13:18:16;1.93;;;0.77;;
13114;SDS011;6623;52.120;8.660;2022-07-17T13:20:46;3.93;;;0.80;;
13114;SDS011;6623;52.120;8.660;2022-07-17T13:23:24;2.67;;;0.70;;
13114;SDS011;6623;52.120;8.660;2022-07-17T13:26:08;5.13;;;0.73;;
13114;SDS011;6623;52.120;8.660;2022-07-17T13:28:34;3.87;;;0.77;;
13114;SDS011;6623;52.120;8.660;2022-07-17T13:31:00;1.47;;;0.67;;
13114;SDS011;6623;52.120;8.660;2022-07-17T13:33:26;4.27;;;0.80;;
13114;SDS011;6623;52.120;8.660;2022-07-17T13:36:08;1.63;;;0.80;;
13114;SDS011;6623;52.120;8.660;2022-07-17T13:38:34;2.70;;;1.00;;
13114;SDS011;6623;52.120;8.660;2022-07-17T13:41:00;1.37;;;0.80;;
13114;SDS011;6623;52.120;8.660;2022-07-17T13:43:35;5.23;;;0.93;;
13114;SDS011;6623;52.120;8.660;2022-07-17T13:46:01;2.27;;;0.77;;
13114;SDS011;6623;52.120;8.660;2022-07-17T13:48:56;5.03;;;0.90;;
13114;SDS011;6623;52.120;8.660;2022-07-17T13:51:25;1.60;;;0.70;;
13114;SDS011;6623;52.120;8.660;2022-07-17T13:53:57;2.53;;;0.97;;
13114;SDS011;6623;52.120;8.660;2022-07-17T13:56:29;0.67;;;0.63;;
13114;SDS011;6623;52.120;8.660;2022-07-17T13:58:55;1.30;;;0.63;;
13114;SDS011;6623;52.120;8.660;2022-07-17T14:01:21;1.40;;;0.67;;
13114;SDS011;6623;52.120;8.660;2022-07-17T14:03:56;3.37;;;0.93;;
13114;SDS011;6623;52.120;8.660;2022-07-17T14:06:28;1.03;;;0.60;;
13114;SDS011;6623;52.120;8.660;2022-07-17T14:08:54;2.17;;;0.67;;
13114;SDS011;6623;52.120;8.660;2022-07-17T14:11:29;2.67;;;0.80;;
13114;SDS011;6623;52.120;8.660;2022-07-17T14:13:55;1.67;;;0.87;;
13114;SDS011;6623;52.120;8.660;2022-07-17T14:16:30;0.70;;;0.50;;
13114;SDS011;6623;52.120;8.660;2022-07-17T14:18:56;1.90;;;0.60;;
13114;SDS011;6623;52.120;8.660;2022-07-17T14:21:33;1.53;;;0.80;;
13114;SDS011;6623;52.120;8.660;2022-07-17T14:24:14;1.20;;;0.73;;
13114;SDS011;6623;52.120;8.660;2022-07-17T14:26:46;2.40;;;0.73;;
13114;SDS011;6623;52.120;8.660;2022-07-17T14:31:47;2.17;;;0.70;;
13114;SDS011;6623;52.120;8.660;2022-07-17T14:34:32;4.93;;;1.00;;
13114;SDS011;6623;52.120;8.660;2022-07-17T14:37:04;1.23;;;0.80;;
13114;SDS011;6623;52.120;8.660;2022-07-17T14:39:45;1.47;;;0.70;;
13114;SDS011;6623;52.120;8.660;2022-07-17T14:42:12;2.17;;;0.73;;
13114;SDS011;6623;52.120;8.660;2022-07-17T14:44:38;2.73;;;0.83;;
13114;SDS011;6623;52.120;8.660;2022-07-17T14:47:22;4.37;;;1.00;;
13114;SDS011;6623;52.120;8.660;2022-07-17T14:49:51;2.40;;;0.80;;
13114;SDS011;6623;52.120;8.660;2022-07-17T14:52:24;2.07;;;0.90;;
13114;SDS011;6623;52.120;8.660;2022-07-17T14:54:56;2.10;;;0.73;;
13114;SDS011;6623;52.120;8.660;2022-07-17T14:57:27;3.53;;;0.80;;
13114;SDS011;6623;52.120;8.660;2022-07-17T14:59:56;2.13;;;0.60;;
13114;SDS011;6623;52.120;8.660;2022-07-17T15:02:28;3.43;;;1.00;;
13114;SDS011;6623;52.120;8.660;2022-07-17T15:04:54;3.10;;;0.90;;
13114;SDS011;6623;52.120;8.660;2022-07-17T15:07:45;3.30;;;1.10;;
13114;SDS011;6623;52.120;8.660;2022-07-17T15:10:14;3.67;;;1.20;;
13114;SDS011;6623;52.120;8.660;2022-07-17T15:15:16;4.17;;;0.90;;
13114;SDS011;6623;52.120;8.660;2022-07-17T15:17:42;1.73;;;0.87;;
13114;SDS011;6623;52.120;8.660;2022-07-17T15:20:08;2.83;;;1.20;;
13114;SDS011;6623;52.120;8.660;2022-07-17T15:22:47;3.60;;;1.13;;
13114;SDS011;6623;52.120;8.660;2022-07-17T15:28:07;1.20;;;0.73;;
13114;SDS011;6623;52.120;8.660;2022-07-17T15:30:49;2.40;;;1.00;;
13114;SDS011;6623;52.120;8.660;2022-07-17T15:33:15;1.87;;;0.90;;